createdAt,value
2018-09-06T00:01:51.489Z,18.95
2018-09-06T00:04:21.067Z,18.94
2018-09-06T00:06:50.615Z,18.93
2018-09-06T00:09:20.188Z,18.93
2018-09-06T00:11:49.720Z,18.91
2018-09-06T00:14:19.244Z,18.90
2018-09-06T00:16:48.800Z,18.88
2018-09-06T00:19:18.359Z,18.85
2018-09-06T00:21:47.888Z,18.85
2018-09-06T00:24:17.478Z,18.80
2018-09-06T00:26:46.989Z,18.77
2018-09-06T00:29:16.764Z,18.77
2018-09-06T00:31:46.280Z,18.74
2018-09-06T00:34:15.860Z,18.73
2018-09-06T00:36:45.415Z,18.72
2018-09-06T00:39:15.324Z,18.68
2018-09-06T00:41:44.884Z,18.67
2018-09-06T00:44:14.456Z,18.64
2018-09-06T00:46:44.013Z,18.61
2018-09-06T00:49:13.880Z,18.59
2018-09-06T00:51:43.441Z,18.55
2018-09-06T00:54:12.999Z,18.54
2018-09-06T00:56:42.788Z,18.51
2018-09-06T00:59:12.383Z,18.47
2018-09-06T01:01:42.188Z,18.48
2018-09-06T01:04:11.746Z,18.46
2018-09-06T01:06:41.302Z,18.45
2018-09-06T01:09:10.904Z,18.43
2018-09-06T01:11:40.447Z,18.43
2018-09-06T01:14:10.011Z,18.38
2018-09-06T01:16:39.739Z,18.35
2018-09-06T01:19:09.311Z,18.33
2018-09-06T01:21:38.884Z,18.32
2018-09-06T01:24:08.559Z,18.29
2018-09-06T01:26:38.074Z,18.28
2018-09-06T01:29:07.579Z,18.26
2018-09-06T01:31:37.123Z,18.22
2018-09-06T01:34:06.847Z,18.20
2018-09-06T01:36:41.398Z,18.17
2018-09-06T01:39:11.931Z,18.13
2018-09-06T01:41:41.479Z,18.10
2018-09-06T01:44:11.014Z,18.08
2018-09-06T01:46:40.563Z,18.06
2018-09-06T01:49:10.479Z,18.01
2018-09-06T01:51:40.072Z,18.00
2018-09-06T01:54:09.596Z,18.00
2018-09-06T01:56:39.164Z,17.99
2018-09-06T01:59:08.765Z,17.98
2018-09-06T02:01:38.330Z,17.99
2018-09-06T02:04:08.251Z,17.98
2018-09-06T02:06:37.803Z,17.95
2018-09-06T02:09:09.267Z,17.91
2018-09-06T02:11:40.282Z,17.90
2018-09-06T02:14:09.943Z,17.88
2018-09-06T02:16:39.463Z,17.86
2018-09-06T02:19:09.033Z,17.83
2018-09-06T02:21:38.611Z,17.81
2018-09-06T02:24:08.222Z,17.78
2018-09-06T02:26:37.758Z,17.77
2018-09-06T02:29:07.323Z,17.77
2018-09-06T02:31:37.252Z,17.76
2018-09-06T02:34:07.464Z,17.74
2018-09-06T02:36:37.371Z,17.71
2018-09-06T02:39:09.155Z,17.71
2018-09-06T02:41:38.710Z,17.68
2018-09-06T02:44:09.233Z,17.67
2018-09-06T02:46:38.795Z,17.65
2018-09-06T02:49:08.311Z,17.64
2018-09-06T02:51:37.861Z,17.60
2018-09-06T02:54:07.467Z,17.58
2018-09-06T02:56:37.015Z,17.56
2018-09-06T02:59:06.567Z,17.54
2018-09-06T03:01:36.150Z,17.50
2018-09-06T03:04:06.019Z,17.49
2018-09-06T03:06:35.573Z,17.50
2018-09-06T03:09:07.450Z,17.46
2018-09-06T03:11:42.115Z,17.43
2018-09-06T03:14:12.278Z,17.41
2018-09-06T03:16:41.879Z,17.40
2018-09-06T03:19:11.647Z,17.37
2018-09-06T03:21:41.188Z,17.37
2018-09-06T03:24:10.708Z,17.35
2018-09-06T03:26:40.268Z,17.32
2018-09-06T03:29:10.004Z,17.31
2018-09-06T03:31:39.522Z,17.29
2018-09-06T03:34:09.059Z,17.28
2018-09-06T03:36:38.591Z,17.27
2018-09-06T03:39:09.951Z,17.27
2018-09-06T03:41:39.723Z,17.27
2018-09-06T03:44:09.304Z,17.27
2018-09-06T03:46:39.220Z,17.25
2018-09-06T03:49:08.762Z,17.26
2018-09-06T03:51:38.453Z,17.26
2018-09-06T03:54:08.001Z,17.28
2018-09-06T03:56:37.530Z,17.28
2018-09-06T03:59:07.075Z,17.30
2018-09-06T04:01:36.617Z,17.30
2018-09-06T04:04:06.147Z,17.28
2018-09-06T04:06:35.679Z,17.30
2018-09-06T04:09:07.957Z,17.30
2018-09-06T04:11:37.511Z,17.30
2018-09-06T04:14:07.161Z,17.30
2018-09-06T04:16:37.441Z,17.29
2018-09-06T04:19:07.547Z,17.29
2018-09-06T04:21:37.370Z,17.27
2018-09-06T04:24:07.318Z,17.27
2018-09-06T04:26:37.016Z,17.28
2018-09-06T04:29:06.536Z,17.26
2018-09-06T04:31:36.050Z,17.24
2018-09-06T04:34:05.605Z,17.22
2018-09-06T04:36:35.179Z,17.21
2018-09-06T04:39:06.735Z,17.19
2018-09-06T04:41:36.268Z,17.18
2018-09-06T04:44:05.827Z,17.18
2018-09-06T04:46:35.697Z,17.19
2018-09-06T04:49:05.374Z,17.19
2018-09-06T04:51:34.911Z,17.20
2018-09-06T04:54:04.455Z,17.22
2018-09-06T04:56:34.043Z,17.22
2018-09-06T04:59:03.592Z,17.24
2018-09-06T05:01:33.207Z,17.24
2018-09-06T05:04:03.002Z,17.29
2018-09-06T05:06:32.580Z,17.31
2018-09-06T05:09:02.228Z,17.38
2018-09-06T05:11:31.791Z,17.46
2018-09-06T05:14:01.351Z,17.54
2018-09-06T05:16:30.912Z,17.63
2018-09-06T05:19:00.475Z,17.73
2018-09-06T05:21:30.031Z,17.84
2018-09-06T05:23:59.635Z,17.95
2018-09-06T05:26:29.255Z,18.08
2018-09-06T05:28:58.812Z,18.19
2018-09-06T05:31:28.330Z,18.28
2018-09-06T05:33:57.884Z,18.35
2018-09-06T05:36:27.448Z,18.45
2018-09-06T05:38:57.286Z,18.58
2018-09-06T05:41:26.814Z,18.74
2018-09-06T05:43:56.535Z,18.89
2018-09-06T05:46:26.165Z,19.00
2018-09-06T05:48:55.751Z,19.15
2018-09-06T05:51:25.300Z,19.32
2018-09-06T05:53:54.854Z,19.40
2018-09-06T05:56:24.466Z,19.54
2018-09-06T05:58:53.963Z,19.65
2018-09-06T06:01:23.517Z,19.68
2018-09-06T06:03:53.207Z,19.78
2018-09-06T06:06:22.754Z,19.85
2018-09-06T06:08:52.530Z,20.03
2018-09-06T06:11:22.287Z,20.15
2018-09-06T06:13:52.002Z,20.22
2018-09-06T06:16:21.533Z,20.14
2018-09-06T06:18:51.083Z,20.14
2018-09-06T06:21:20.644Z,20.26
2018-09-06T06:23:50.206Z,20.35
2018-09-06T06:26:19.731Z,20.34
2018-09-06T06:28:49.411Z,20.32
2018-09-06T06:31:18.961Z,20.35
2018-09-06T06:33:48.709Z,20.33
2018-09-06T06:36:18.245Z,20.34
2018-09-06T06:38:47.987Z,20.37
2018-09-06T06:41:17.603Z,20.35
2018-09-06T06:43:47.262Z,20.36
2018-09-06T06:46:16.941Z,20.35
2018-09-06T06:48:46.511Z,20.42
2018-09-06T06:51:16.076Z,20.52
2018-09-06T06:53:45.883Z,20.68
2018-09-06T06:56:15.402Z,20.83
2018-09-06T06:58:44.942Z,20.88
2018-09-06T07:01:14.576Z,20.83
2018-09-06T07:03:44.099Z,20.82
2018-09-06T07:06:13.759Z,20.97
2018-09-06T07:08:43.299Z,21.15
2018-09-06T07:11:13.205Z,21.39
2018-09-06T07:13:42.766Z,21.74
2018-09-06T07:16:12.329Z,22.11
2018-09-06T07:18:41.951Z,22.44
2018-09-06T07:21:11.676Z,22.78
2018-09-06T07:23:41.207Z,23.02
2018-09-06T07:26:10.830Z,23.23
2018-09-06T07:28:40.590Z,23.46
2018-09-06T07:31:10.165Z,23.63
2018-09-06T07:33:40.054Z,23.71
2018-09-06T07:36:09.611Z,23.95
2018-09-06T07:38:39.862Z,24.19
2018-09-06T07:41:09.393Z,24.34
2018-09-06T07:43:39.153Z,24.53
2018-09-06T07:46:08.707Z,24.77
2018-09-06T07:48:38.363Z,24.85
2018-09-06T07:51:07.961Z,24.77
2018-09-06T07:53:37.502Z,24.63
2018-09-06T07:56:07.342Z,24.77
2018-09-06T07:58:36.921Z,24.97
2018-09-06T08:01:07.503Z,25.28
2018-09-06T08:03:37.238Z,25.59
2018-09-06T08:06:06.828Z,25.72
2018-09-06T08:08:36.820Z,25.72
2018-09-06T08:11:06.520Z,25.66
2018-09-06T08:13:36.098Z,25.68
2018-09-06T08:16:05.655Z,25.85
2018-09-06T08:18:35.295Z,26.10
2018-09-06T08:21:04.879Z,26.42
2018-09-06T08:23:34.462Z,26.79
2018-09-06T08:26:04.028Z,27.06
2018-09-06T08:28:33.671Z,27.22
2018-09-06T08:31:03.312Z,27.35
2018-09-06T08:33:33.115Z,27.49
2018-09-06T08:36:02.692Z,27.64
2018-09-06T08:38:32.214Z,27.65
2018-09-06T08:41:01.815Z,27.64
2018-09-06T08:43:31.338Z,27.60
2018-09-06T08:46:00.928Z,27.62
2018-09-06T08:48:30.484Z,27.73
2018-09-06T08:51:00.058Z,27.81
2018-09-06T08:53:29.623Z,28.00
2018-09-06T08:55:59.185Z,28.18
2018-09-06T08:58:28.809Z,28.24
2018-09-06T09:01:03.855Z,28.35
2018-09-06T09:03:33.423Z,28.59
2018-09-06T09:06:03.427Z,28.76
2018-09-06T09:08:33.315Z,28.93
2018-09-06T09:11:03.006Z,28.98
2018-09-06T09:13:32.513Z,28.99
2018-09-06T09:16:02.087Z,29.01
2018-09-06T09:18:31.836Z,28.97
2018-09-06T09:21:01.438Z,29.07
2018-09-06T09:23:31.027Z,28.83
2018-09-06T09:26:00.575Z,28.65
2018-09-06T09:28:30.218Z,28.80
2018-09-06T09:30:59.779Z,28.98
2018-09-06T09:33:29.692Z,29.08
2018-09-06T09:35:59.349Z,29.14
2018-09-06T09:38:29.137Z,29.21
2018-09-06T09:40:58.712Z,29.26
2018-09-06T09:43:28.485Z,29.41
2018-09-06T09:48:27.242Z,29.70
2018-09-06T09:50:56.776Z,29.75
2018-09-06T09:53:26.298Z,29.77
2018-09-06T09:55:55.845Z,29.71
2018-09-06T09:58:25.510Z,29.70
2018-09-06T10:00:55.155Z,29.78
2018-09-06T10:03:30.078Z,29.71
2018-09-06T10:06:05.185Z,29.66
2018-09-06T10:08:40.145Z,29.94
2018-09-06T10:11:09.683Z,30.06
2018-09-06T10:13:39.289Z,30.27
2018-09-06T10:16:09.059Z,30.46
2018-09-06T10:18:38.779Z,30.53
2018-09-06T10:21:08.354Z,30.36
2018-09-06T10:23:38.196Z,30.10
2018-09-06T10:26:07.787Z,30.05
2018-09-06T10:28:37.387Z,30.04
2018-09-06T10:31:07.011Z,30.25
2018-09-06T10:33:36.605Z,30.28
2018-09-06T10:36:06.438Z,30.36
2018-09-06T10:38:36.125Z,30.40
2018-09-06T10:41:06.443Z,30.36
2018-09-06T10:43:36.170Z,30.32
2018-09-06T10:46:05.837Z,30.43
2018-09-06T10:48:35.432Z,30.49
2018-09-06T10:51:05.648Z,30.49
2018-09-06T10:53:35.271Z,30.59
2018-09-06T10:56:05.096Z,30.70
2018-09-06T10:58:35.061Z,30.74
2018-09-06T11:01:09.811Z,30.79
2018-09-06T11:03:39.448Z,30.79
2018-09-06T11:06:09.261Z,30.75
2018-09-06T11:08:38.871Z,30.73
2018-09-06T11:11:08.445Z,30.77
2018-09-06T11:13:38.039Z,30.93
2018-09-06T11:16:07.707Z,30.94
2018-09-06T11:18:37.863Z,30.95
2018-09-06T11:21:07.764Z,30.77
2018-09-06T11:23:37.479Z,30.53
2018-09-06T11:26:07.069Z,30.34
2018-09-06T11:28:36.831Z,30.16
2018-09-06T11:31:06.458Z,29.92
2018-09-06T11:33:36.107Z,29.72
2018-09-06T11:36:05.947Z,29.54
2018-09-06T11:38:35.716Z,29.33
2018-09-06T11:41:05.394Z,29.18
2018-09-06T11:43:34.938Z,29.11
2018-09-06T11:46:04.520Z,29.03
2018-09-06T11:48:34.324Z,28.95
2018-09-06T11:51:04.007Z,28.88
2018-09-06T11:53:33.642Z,28.83
2018-09-06T11:56:03.205Z,28.74
2018-09-06T11:58:33.221Z,28.63
2018-09-06T12:01:03.172Z,28.51
2018-09-06T12:03:33.272Z,28.41
2018-09-06T12:06:03.213Z,28.32
2018-09-06T12:08:32.967Z,28.24
2018-09-06T12:11:02.547Z,28.08
2018-09-06T12:13:32.099Z,28.00
2018-09-06T12:16:01.711Z,27.88
2018-09-06T12:18:31.274Z,27.77
2018-09-06T12:21:01.088Z,27.71
2018-09-06T12:23:30.712Z,27.65
2018-09-06T12:26:00.637Z,27.60
2018-09-06T12:28:30.364Z,27.58
2018-09-06T12:31:00.144Z,27.61
2018-09-06T12:33:29.795Z,27.70
2018-09-06T12:36:01.184Z,27.78
2018-09-06T12:38:31.448Z,27.94
2018-09-06T12:41:01.125Z,28.09
2018-09-06T12:43:30.809Z,28.21
2018-09-06T12:46:00.442Z,28.35
2018-09-06T12:48:30.103Z,28.47
2018-09-06T12:51:03.317Z,28.53
2018-09-06T12:53:33.611Z,28.55
2018-09-06T12:56:03.250Z,28.65
2018-09-06T12:58:32.883Z,28.70
2018-09-06T13:01:02.475Z,28.76
2018-09-06T13:03:32.215Z,28.83
2018-09-06T13:06:01.830Z,28.98
2018-09-06T13:08:32.135Z,29.10
2018-09-06T13:11:01.970Z,29.11
2018-09-06T13:13:31.650Z,29.07
2018-09-06T13:16:01.215Z,29.05
2018-09-06T13:18:30.910Z,29.03
2018-09-06T13:21:00.825Z,29.05
2018-09-06T13:23:30.980Z,29.11
2018-09-06T13:26:00.863Z,29.08
2018-09-06T13:28:30.998Z,29.10
2018-09-06T13:31:00.550Z,29.16
2018-09-06T13:33:30.203Z,29.12
2018-09-06T13:35:59.896Z,29.07
2018-09-06T13:38:29.676Z,29.06
2018-09-06T13:40:59.251Z,29.03
2018-09-06T13:43:28.828Z,29.07
2018-09-06T13:45:58.607Z,29.06
2018-09-06T13:48:28.207Z,29.03
2018-09-06T13:50:57.791Z,29.13
2018-09-06T13:53:27.327Z,28.86
2018-09-06T13:55:56.939Z,28.43
2018-09-06T13:58:26.560Z,28.27
2018-09-06T14:00:56.313Z,28.16
2018-09-06T14:03:26.076Z,27.87
2018-09-06T14:05:55.830Z,27.75
2018-09-06T14:08:25.479Z,27.65
2018-09-06T14:10:55.139Z,27.54
2018-09-06T14:13:24.695Z,27.51
2018-09-06T14:15:54.339Z,27.40
2018-09-06T14:18:23.973Z,27.24
2018-09-06T14:20:53.652Z,27.20
2018-09-06T14:23:23.213Z,27.06
2018-09-06T14:25:52.782Z,27.02
2018-09-06T14:28:22.423Z,27.02
2018-09-06T14:30:51.972Z,26.98
2018-09-06T14:33:21.583Z,27.01
2018-09-06T14:35:51.139Z,26.90
2018-09-06T14:38:20.708Z,26.85
2018-09-06T14:40:50.264Z,26.81
2018-09-06T14:43:19.876Z,26.78
2018-09-06T14:45:49.444Z,26.73
2018-09-06T14:48:19.056Z,26.71
2018-09-06T14:50:48.665Z,26.73
2018-09-06T14:53:18.476Z,26.73
2018-09-06T14:55:48.049Z,26.69
2018-09-06T14:58:17.632Z,26.64
2018-09-06T15:00:47.235Z,26.58
2018-09-06T15:03:16.871Z,26.57
2018-09-06T15:05:46.422Z,26.57
2018-09-06T15:08:16.015Z,26.44
2018-09-06T15:10:45.594Z,26.25
2018-09-06T15:13:15.168Z,25.99
2018-09-06T15:15:44.758Z,25.91
2018-09-06T15:18:14.532Z,25.84
2018-09-06T15:20:44.280Z,25.61
2018-09-06T15:23:13.947Z,25.43
2018-09-06T15:25:43.495Z,25.33
2018-09-06T15:28:13.289Z,25.21
2018-09-06T15:30:42.955Z,25.10
2018-09-06T15:33:12.774Z,25.03
2018-09-06T15:35:42.412Z,24.95
2018-09-06T15:38:12.119Z,24.84
2018-09-06T15:40:41.792Z,24.78
2018-09-06T15:43:11.707Z,24.72
2018-09-06T15:45:41.368Z,24.61
2018-09-06T15:48:11.104Z,24.44
2018-09-06T15:50:40.819Z,24.23
2018-09-06T15:53:10.688Z,24.10
2018-09-06T15:55:40.365Z,24.02
2018-09-06T15:58:10.343Z,23.93
2018-09-06T16:00:40.287Z,23.81
2018-09-06T16:03:09.886Z,23.70
2018-09-06T16:05:39.936Z,23.54
2018-09-06T16:08:09.732Z,23.33
2018-09-06T16:10:39.419Z,23.27
2018-09-06T16:13:09.444Z,23.13
2018-09-06T16:15:39.313Z,23.06
2018-09-06T16:18:09.761Z,22.99
2018-09-06T16:20:39.375Z,22.94
2018-09-06T16:23:09.084Z,22.90
2018-09-06T16:25:38.699Z,22.86
2018-09-06T16:28:08.343Z,22.82
2018-09-06T16:30:38.004Z,22.84
2018-09-06T16:33:07.689Z,22.84
2018-09-06T16:35:37.283Z,22.88
2018-09-06T16:38:06.846Z,22.87
2018-09-06T16:40:36.629Z,22.81
2018-09-06T16:43:06.406Z,22.77
2018-09-06T16:45:36.067Z,22.69
2018-09-06T16:48:05.676Z,22.66
2018-09-06T16:50:35.311Z,22.60
2018-09-06T16:53:04.995Z,22.49
2018-09-06T16:55:35.454Z,22.46
2018-09-06T16:58:05.242Z,22.42
2018-09-06T17:00:35.135Z,22.35
2018-09-06T17:03:04.906Z,22.13
2018-09-06T17:05:34.543Z,21.99
2018-09-06T17:08:06.650Z,21.92
2018-09-06T17:10:36.376Z,21.87
2018-09-06T17:13:06.138Z,21.83
2018-09-06T17:15:36.585Z,21.80
2018-09-06T17:18:06.433Z,21.75
2018-09-06T17:20:35.987Z,21.72
2018-09-06T17:23:05.997Z,21.69
2018-09-06T17:25:35.631Z,21.64
2018-09-06T17:28:05.183Z,21.61
2018-09-06T17:30:34.797Z,21.59
2018-09-06T17:33:04.399Z,21.57
2018-09-06T17:35:34.233Z,21.49
2018-09-06T17:38:03.858Z,21.44
2018-09-06T17:40:33.564Z,21.36
2018-09-06T17:43:03.447Z,21.28
2018-09-06T17:45:33.380Z,21.27
2018-09-06T17:48:03.076Z,21.27
2018-09-06T17:50:32.692Z,21.27
2018-09-06T17:53:02.422Z,21.25
2018-09-06T17:55:32.136Z,21.23
2018-09-06T17:58:01.750Z,21.23
2018-09-06T18:00:31.412Z,21.19
2018-09-06T18:03:01.000Z,21.18
2018-09-06T18:05:30.656Z,21.14
2018-09-06T18:08:00.298Z,21.16
2018-09-06T18:10:29.898Z,21.14
2018-09-06T18:13:00.192Z,21.13
2018-09-06T18:15:29.991Z,21.15
2018-09-06T18:18:00.410Z,21.10
2018-09-06T18:20:30.052Z,21.07
2018-09-06T18:22:59.682Z,21.06
2018-09-06T18:25:29.347Z,21.04
2018-09-06T18:27:59.249Z,21.00
2018-09-06T18:30:29.256Z,20.97
2018-09-06T18:32:59.428Z,20.94
2018-09-06T18:35:29.678Z,20.92
2018-09-06T18:37:59.271Z,20.88
2018-09-06T18:40:28.892Z,20.83
2018-09-06T18:42:58.647Z,20.81
2018-09-06T18:45:28.555Z,20.80
2018-09-06T18:47:58.307Z,20.78
2018-09-06T18:50:28.481Z,20.76
2018-09-06T18:52:58.128Z,20.76
2018-09-06T18:55:28.213Z,20.73
2018-09-06T18:57:58.190Z,20.74
2018-09-06T19:00:27.836Z,20.72
2018-09-06T19:02:57.531Z,20.70
2018-09-06T19:05:27.169Z,20.71
2018-09-06T19:07:56.841Z,20.68
2018-09-06T19:10:26.399Z,20.65
2018-09-06T19:12:56.028Z,20.65
2018-09-06T19:15:25.667Z,20.62
2018-09-06T19:17:55.419Z,20.62
2018-09-06T19:20:25.091Z,20.60
2018-09-06T19:22:54.731Z,20.59
2018-09-06T19:25:24.952Z,20.58
2018-09-06T19:27:55.278Z,20.58
2018-09-06T19:30:25.067Z,20.57
2018-09-06T19:32:54.987Z,20.56
2018-09-06T19:35:24.769Z,20.53
2018-09-06T19:37:54.513Z,20.53
2018-09-06T19:40:24.302Z,20.49
2018-09-06T19:42:54.451Z,20.48
2018-09-06T19:45:24.355Z,20.42
2018-09-06T19:47:54.212Z,20.35
2018-09-06T19:50:24.004Z,20.30
2018-09-06T19:52:53.729Z,20.28
2018-09-06T19:55:25.279Z,20.29
2018-09-06T19:57:54.894Z,20.21
2018-09-06T20:00:24.739Z,20.19
2018-09-06T20:02:54.484Z,20.22
2018-09-06T20:05:24.249Z,20.25
2018-09-06T20:07:53.901Z,20.26
2018-09-06T20:10:24.391Z,20.26
2018-09-06T20:12:54.430Z,20.28
2018-09-06T20:15:24.720Z,20.29
2018-09-06T20:17:55.433Z,20.29
2018-09-06T20:20:25.690Z,20.31
2018-09-06T20:22:55.515Z,20.30
2018-09-06T20:25:26.198Z,20.29
2018-09-06T20:27:56.540Z,20.32
2018-09-06T20:30:27.826Z,20.32
2018-09-06T20:33:00.044Z,20.32
2018-09-06T20:35:31.400Z,20.34
2018-09-06T20:38:01.603Z,20.32
2018-09-06T20:40:31.996Z,20.32
2018-09-06T20:43:03.499Z,20.30
2018-09-06T20:45:33.738Z,20.31
2018-09-06T20:48:03.506Z,20.31
2018-09-06T20:50:33.422Z,20.32
2018-09-06T20:53:04.149Z,20.32
2018-09-06T20:55:34.071Z,20.32
2018-09-06T20:58:03.878Z,20.31
2018-09-06T21:00:33.555Z,20.30
2018-09-06T21:03:03.806Z,20.31
2018-09-06T21:05:33.670Z,20.28
2018-09-06T21:08:03.356Z,20.22
2018-09-06T21:10:33.725Z,20.19
2018-09-06T21:13:03.563Z,20.19
2018-09-06T21:15:33.310Z,20.18
2018-09-06T21:18:04.329Z,20.14
2018-09-06T21:20:35.602Z,20.11
2018-09-06T21:23:05.709Z,20.05
2018-09-06T21:25:35.663Z,20.03
2018-09-06T21:28:06.049Z,19.99
2018-09-06T21:30:35.669Z,20.02
2018-09-06T21:33:05.466Z,19.99
2018-09-06T21:35:35.116Z,19.98
2018-09-06T21:38:04.783Z,19.95
2018-09-06T21:40:34.501Z,19.96
2018-09-06T21:43:04.229Z,19.94
2018-09-06T21:45:33.858Z,19.95
2018-09-06T21:48:03.897Z,19.95
2018-09-06T21:50:33.675Z,19.94
2018-09-06T21:53:03.367Z,19.95
2018-09-06T21:55:33.043Z,19.96
2018-09-06T21:58:02.680Z,19.96
2018-09-06T22:00:33.170Z,19.96
2018-09-06T22:03:07.835Z,19.94
2018-09-06T22:05:37.582Z,19.94
2018-09-06T22:08:07.377Z,19.96
2018-09-06T22:10:37.151Z,19.97
2018-09-06T22:13:06.868Z,19.96
2018-09-06T22:15:36.705Z,19.95
2018-09-06T22:18:06.570Z,19.93
2018-09-06T22:20:36.402Z,19.93
2018-09-06T22:23:06.474Z,19.92
2018-09-06T22:25:36.065Z,19.91
2018-09-06T22:28:05.675Z,19.90
2018-09-06T22:30:35.349Z,19.90
2018-09-06T22:33:05.269Z,19.91
2018-09-06T22:35:35.002Z,19.89
2018-09-06T22:38:04.644Z,19.91
2018-09-06T22:40:34.437Z,19.93
2018-09-06T22:43:04.057Z,19.93
2018-09-06T22:45:33.730Z,19.92
2018-09-06T22:48:03.281Z,19.93
2018-09-06T22:50:32.894Z,19.95
2018-09-06T22:53:02.540Z,19.91
2018-09-06T22:55:32.195Z,19.89
2018-09-06T22:58:01.869Z,19.84
2018-09-06T23:00:31.979Z,19.81
2018-09-06T23:03:06.714Z,19.83
2018-09-06T23:05:36.371Z,19.80
2018-09-06T23:08:06.049Z,19.80
2018-09-06T23:10:35.620Z,19.79
2018-09-06T23:13:05.223Z,19.77
2018-09-06T23:15:34.773Z,19.79
2018-09-06T23:18:04.374Z,19.78
2018-09-06T23:20:34.274Z,19.76
2018-09-06T23:23:04.306Z,19.75
2018-09-06T23:25:34.006Z,19.78
2018-09-06T23:28:04.012Z,19.79
2018-09-06T23:30:33.644Z,19.81
2018-09-06T23:33:03.262Z,19.80
2018-09-06T23:35:32.892Z,19.80
2018-09-06T23:38:02.555Z,19.79
2018-09-06T23:40:36.190Z,19.81
2018-09-06T23:43:05.770Z,19.79
2018-09-06T23:45:35.461Z,19.76
2018-09-06T23:48:05.101Z,19.75
2018-09-06T23:50:34.736Z,19.78
2018-09-06T23:53:04.343Z,19.80
2018-09-06T23:55:33.957Z,19.80
2018-09-06T23:58:03.678Z,19.81
